Time;durP1;ratioP1;P1;durP2;ratioP2;P2;SDS_P1;SDS_P2;PMS_P1;PMS_P2;Temp;Humidity;BMP_temperature;BMP_pressure;BME280_temperature;BME280_humidity;BME280_pressure;Samples;Min_cycle;Max_cycle;Signal;HPM_P1;HPM_P2
2024/01/13 00:02:18;;;;;;;24.50;13.03;;;1.40;99.90;;;;;;5042893;28;20204;-78
2024/01/13 00:04:46;;;;;;;24.17;12.57;;;1.40;99.90;;;;;;5047110;28;20228;-78
2024/01/13 00:07:13;;;;;;;23.23;12.23;;;1.40;99.90;;;;;;5045369;28;20207;-79
2024/01/13 00:09:40;;;;;;;25.53;13.97;;;1.40;99.90;;;;;;5051836;28;20199;-79
2024/01/13 00:12:07;;;;;;;27.77;14.23;;;1.80;99.90;;;;;;5046873;28;20230;-78
2024/01/13 00:14:34;;;;;;;27.20;13.57;;;1.70;99.90;;;;;;5047627;28;20231;-79
2024/01/13 00:17:01;;;;;;;26.13;13.70;;;1.40;99.90;;;;;;5046541;28;20215;-78
2024/01/13 00:19:28;;;;;;;25.67;13.93;;;1.40;99.90;;;;;;5047973;28;20200;-79
2024/01/13 00:21:56;;;;;;;30.17;15.43;;;1.40;99.90;;;;;;5047493;28;20206;-78
2024/01/13 00:24:22;;;;;;;28.27;14.53;;;1.40;99.90;;;;;;5043732;28;20686;-78
2024/01/13 00:26:49;;;;;;;29.77;14.93;;;1.40;99.90;;;;;;5044168;28;20667;-78
2024/01/13 00:29:16;;;;;;;27.70;15.60;;;1.40;99.90;;;;;;5042460;28;20213;-79
2024/01/13 00:31:43;;;;;;;28.93;15.97;;;1.40;99.90;;;;;;5043288;28;20206;-78
2024/01/13 00:34:09;;;;;;;31.07;17.17;;;1.40;99.90;;;;;;5039840;28;20220;-78
2024/01/13 00:36:36;;;;;;;26.87;13.67;;;1.40;99.90;;;;;;5037964;28;20211;-78
2024/01/13 00:39:05;;;;;;;30.97;15.40;;;1.40;99.90;;;;;;5042391;28;20208;-77
2024/01/13 00:41:32;;;;;;;30.50;14.90;;;1.40;99.90;;;;;;5043709;28;20207;-78
2024/01/13 00:44:00;;;;;;;27.67;15.10;;;1.40;99.90;;;;;;5048188;28;20222;-76
2024/01/13 00:46:27;;;;;;;28.33;15.30;;;1.40;99.90;;;;;;5041096;28;20918;-78
2024/01/13 00:48:53;;;;;;;29.37;16.30;;;1.40;99.90;;;;;;5042064;28;20204;-79
2024/01/13 00:51:20;;;;;;;29.37;15.00;;;1.40;99.90;;;;;;5045460;28;20199;-78
2024/01/13 00:53:47;;;;;;;30.57;14.27;;;1.50;99.90;;;;;;5041191;28;20223;-78
2024/01/13 00:56:15;;;;;;;28.77;14.87;;;1.40;99.90;;;;;;5045525;28;20207;-78
2024/01/13 00:58:42;;;;;;;30.17;14.57;;;1.40;99.90;;;;;;5048225;28;20594;-78
2024/01/13 01:01:09;;;;;;;28.00;15.13;;;1.40;99.90;;;;;;5044718;28;20210;-78
2024/01/13 01:03:35;;;;;;;29.77;14.73;;;1.40;99.90;;;;;;5052392;28;20215;-79
2024/01/13 01:06:03;;;;;;;27.07;13.63;;;1.40;99.90;;;;;;5046753;28;20207;-79
2024/01/13 01:08:29;;;;;;;27.33;14.00;;;1.80;99.90;;;;;;5042310;28;20196;-77
2024/01/13 01:10:56;;;;;;;28.77;14.30;;;1.40;99.90;;;;;;5044893;28;20586;-78
2024/01/13 01:13:24;;;;;;;28.87;14.93;;;1.40;99.90;;;;;;5045223;28;20218;-77
2024/01/13 01:15:51;;;;;;;27.77;14.07;;;1.60;99.90;;;;;;5043395;28;20294;-78
2024/01/13 01:18:18;;;;;;;28.00;15.37;;;1.40;99.90;;;;;;5048495;28;20290;-78
2024/01/13 01:20:45;;;;;;;26.80;14.33;;;1.60;99.90;;;;;;5042283;28;20250;-77
2024/01/13 01:23:12;;;;;;;29.07;14.67;;;1.50;99.90;;;;;;5044239;28;20560;-78
2024/01/13 01:25:39;;;;;;;29.37;14.77;;;1.50;99.90;;;;;;5045530;28;20210;-79
2024/01/13 01:28:06;;;;;;;26.50;13.97;;;1.50;99.90;;;;;;5042364;28;20206;-78
2024/01/13 01:30:34;;;;;;;27.67;14.20;;;1.50;99.90;;;;;;5042311;28;20208;-79
2024/01/13 01:33:01;;;;;;;26.73;13.33;;;1.50;99.90;;;;;;5042002;28;20228;-78
2024/01/13 01:35:27;;;;;;;26.63;13.83;;;1.50;99.90;;;;;;5041385;28;20234;-79
2024/01/13 01:37:54;;;;;;;25.83;14.57;;;1.50;99.90;;;;;;5041522;28;20206;-78
2024/01/13 01:40:21;;;;;;;27.70;14.80;;;2.00;99.90;;;;;;5040996;28;21190;-78
2024/01/13 01:42:48;;;;;;;23.63;12.33;;;1.60;99.90;;;;;;5048081;28;20195;-79
2024/01/13 01:45:15;;;;;;;23.97;12.73;;;1.70;99.90;;;;;;5042663;28;20219;-78
2024/01/13 01:47:44;;;;;;;21.93;11.80;;;1.70;99.90;;;;;;5053021;28;20203;-78
2024/01/13 01:50:11;;;;;;;22.70;12.10;;;1.70;99.90;;;;;;5051671;28;20210;-76
2024/01/13 01:52:40;;;;;;;21.73;11.30;;;1.80;99.90;;;;;;5045215;28;20216;-78
2024/01/13 01:55:08;;;;;;;20.10;10.67;;;1.80;99.90;;;;;;5050629;28;20228;-77
2024/01/13 01:57:38;;;;;;;21.13;9.97;;;1.90;99.90;;;;;;5044450;28;20298;-77
2024/01/13 02:00:07;;;;;;;20.43;9.97;;;1.90;99.90;;;;;;5051209;28;20246;-76
2024/01/13 02:02:35;;;;;;;22.17;11.53;;;2.00;99.90;;;;;;5041710;28;20198;-79
2024/01/13 02:05:03;;;;;;;19.73;9.70;;;2.00;99.90;;;;;;5049628;28;20225;-78
2024/01/13 02:07:32;;;;;;;16.90;8.97;;;2.10;99.90;;;;;;5045565;28;20199;-77
2024/01/13 02:09:59;;;;;;;17.73;9.13;;;2.10;99.90;;;;;;5036819;28;20207;-78
2024/01/13 02:12:26;;;;;;;18.00;9.33;;;2.10;99.90;;;;;;5046674;28;20207;-78
2024/01/13 02:14:54;;;;;;;16.63;8.20;;;2.10;99.90;;;;;;5051460;28;20220;-78
2024/01/13 02:17:21;;;;;;;16.00;8.00;;;2.20;99.90;;;;;;5043238;28;20208;-78
2024/01/13 02:19:48;;;;;;;15.83;8.10;;;2.20;99.90;;;;;;5046182;28;20670;-77
2024/01/13 02:22:16;;;;;;;13.50;7.33;;;2.20;99.90;;;;;;5043200;28;20203;-79
2024/01/13 02:24:43;;;;;;;16.27;8.03;;;2.20;99.90;;;;;;5043288;28;20219;-78
2024/01/13 02:27:09;;;;;;;18.50;8.70;;;2.10;99.90;;;;;;5042285;28;20207;-76
2024/01/13 02:29:36;;;;;;;16.90;8.03;;;2.10;99.90;;;;;;5043571;28;20650;-79
2024/01/13 02:32:03;;;;;;;14.87;7.60;;;2.40;99.90;;;;;;5042496;28;20211;-78
2024/01/13 02:34:30;;;;;;;15.97;7.93;;;2.10;99.90;;;;;;5042066;28;20346;-77
2024/01/13 02:36:57;;;;;;;15.67;8.03;;;2.20;99.90;;;;;;5036820;28;20258;-77
2024/01/13 02:39:25;;;;;;;14.83;7.73;;;2.20;99.90;;;;;;5039793;28;20214;-76
2024/01/13 02:41:52;;;;;;;14.33;7.43;;;2.20;99.90;;;;;;5040282;28;20680;-78
2024/01/13 02:44:19;;;;;;;14.90;7.77;;;2.20;99.90;;;;;;5039755;28;20226;-78
2024/01/13 02:46:46;;;;;;;14.07;7.60;;;2.20;99.90;;;;;;5039287;28;20204;-78
2024/01/13 02:49:13;;;;;;;12.80;6.83;;;2.20;99.90;;;;;;5046943;28;20211;-77
2024/01/13 02:51:40;;;;;;;11.43;6.13;;;2.20;99.90;;;;;;5052927;28;20257;-77
2024/01/13 02:54:07;;;;;;;13.23;6.67;;;2.20;99.90;;;;;;5047553;28;20230;-78
2024/01/13 02:56:35;;;;;;;15.70;7.40;;;2.20;99.90;;;;;;5039765;28;20942;-78
2024/01/13 02:59:02;;;;;;;12.23;6.60;;;2.20;99.90;;;;;;5039236;28;20207;-77
2024/01/13 03:01:30;;;;;;;13.00;7.90;;;2.20;99.90;;;;;;5039233;28;20200;-78
2024/01/13 03:03:57;;;;;;;12.00;6.33;;;2.20;99.90;;;;;;5037368;28;20226;-77
2024/01/13 03:06:25;;;;;;;12.93;6.73;;;2.20;99.90;;;;;;5053415;28;20219;-79
2024/01/13 03:08:52;;;;;;;15.07;6.90;;;2.20;99.90;;;;;;5050940;28;21146;-78
2024/01/13 03:11:18;;;;;;;13.43;6.23;;;2.20;99.90;;;;;;5040462;28;20559;-78
2024/01/13 03:13:47;;;;;;;14.90;7.43;;;2.20;99.90;;;;;;5038714;28;20220;-77
2024/01/13 03:16:14;;;;;;;12.07;6.43;;;2.20;99.90;;;;;;5045238;28;20663;-78
2024/01/13 03:18:41;;;;;;;13.77;7.00;;;2.10;99.90;;;;;;5041811;28;20198;-76
2024/01/13 03:21:08;;;;;;;11.87;5.90;;;2.10;99.90;;;;;;5038637;28;20204;-77
2024/01/13 03:23:35;;;;;;;9.23;5.47;;;2.10;99.90;;;;;;5040809;28;20254;-79
2024/01/13 03:26:02;;;;;;;11.90;6.27;;;2.10;99.90;;;;;;5045874;28;20207;-78
2024/01/13 03:28:29;;;;;;;12.97;6.67;;;2.10;99.90;;;;;;5044821;28;20199;-78
2024/01/13 03:30:58;;;;;;;9.97;5.53;;;2.10;99.90;;;;;;5038180;28;20203;-78
2024/01/13 03:33:25;;;;;;;9.17;5.37;;;2.20;99.90;;;;;;5043577;28;20693;-77
2024/01/13 03:35:51;;;;;;;9.93;5.13;;;2.20;99.90;;;;;;5040418;28;20195;-78
2024/01/13 03:38:18;;;;;;;8.20;4.57;;;2.20;99.90;;;;;;5041920;28;20209;-78
2024/01/13 03:40:45;;;;;;;8.57;4.63;;;2.10;99.90;;;;;;5038699;28;20203;-78
2024/01/13 03:43:12;;;;;;;5.73;3.67;;;2.10;99.90;;;;;;5045795;28;20226;-78
2024/01/13 03:45:38;;;;;;;6.90;3.70;;;2.20;99.90;;;;;;5041080;28;20218;-79
2024/01/13 03:48:07;;;;;;;5.70;3.70;;;2.20;99.90;;;;;;5039843;28;20200;-78
2024/01/13 03:50:34;;;;;;;5.10;3.20;;;2.20;99.90;;;;;;5038997;28;20227;-79
2024/01/13 03:53:01;;;;;;;5.63;3.40;;;2.30;99.90;;;;;;5044576;28;20693;-77
2024/01/13 03:55:28;;;;;;;5.93;3.43;;;2.30;99.90;;;;;;5048074;28;20261;-78
2024/01/13 03:57:54;;;;;;;6.37;3.20;;;2.30;99.90;;;;;;5044613;28;20571;-78
2024/01/13 04:00:21;;;;;;;5.43;3.20;;;2.30;99.90;;;;;;5040043;28;20219;-76
2024/01/13 04:02:48;;;;;;;5.23;3.50;;;2.30;99.90;;;;;;5051454;28;20199;-78
2024/01/13 04:05:16;;;;;;;8.83;4.93;;;2.30;99.90;;;;;;5042247;28;20223;-78
2024/01/13 04:07:43;;;;;;;8.33;4.50;;;2.30;99.90;;;;;;5042695;28;20196;-78
2024/01/13 04:10:10;;;;;;;6.83;4.23;;;2.30;99.90;;;;;;5050520;28;20203;-78
2024/01/13 04:12:37;;;;;;;7.40;4.47;;;2.30;99.90;;;;;;5046492;28;20217;-77
2024/01/13 04:15:04;;;;;;;5.03;3.40;;;2.30;99.90;;;;;;5054003;28;20828;-77
2024/01/13 04:17:31;;;;;;;6.30;3.83;;;2.30;99.90;;;;;;5051559;28;20212;-78
2024/01/13 04:19:58;;;;;;;5.47;3.50;;;2.30;99.90;;;;;;5044748;28;20288;-77
2024/01/13 04:22:26;;;;;;;5.03;3.20;;;2.30;99.90;;;;;;5051112;28;20207;-77
2024/01/13 04:24:53;;;;;;;3.80;2.80;;;2.30;99.90;;;;;;5045650;28;20211;-78
2024/01/13 04:27:19;;;;;;;3.80;2.80;;;2.30;99.90;;;;;;5040850;28;20206;-79
2024/01/13 04:29:46;;;;;;;5.20;3.23;;;2.30;99.90;;;;;;5041436;28;20225;-78
2024/01/13 04:32:13;;;;;;;5.33;3.40;;;2.30;99.90;;;;;;5043841;28;20208;-78
2024/01/13 04:34:40;;;;;;;7.30;4.10;;;2.30;99.90;;;;;;5043332;28;20227;-78
2024/01/13 04:37:06;;;;;;;7.40;4.03;;;2.30;99.90;;;;;;5046690;28;20210;-79
2024/01/13 04:39:36;;;;;;;6.13;4.00;;;2.30;99.90;;;;;;5044502;28;20196;-77
2024/01/13 04:42:02;;;;;;;8.77;4.80;;;2.30;99.90;;;;;;5043313;28;20218;-76
2024/01/13 04:44:29;;;;;;;9.07;4.90;;;2.30;99.90;;;;;;5042592;28;20215;-78
2024/01/13 04:46:56;;;;;;;6.47;4.30;;;2.20;99.90;;;;;;5042553;28;20244;-79
2024/01/13 04:49:23;;;;;;;7.47;4.40;;;2.30;99.90;;;;;;5042991;28;20204;-76
2024/01/13 04:51:50;;;;;;;6.43;3.83;;;2.20;99.90;;;;;;5042409;28;20203;-79
2024/01/13 04:54:16;;;;;;;5.30;3.63;;;2.20;99.90;;;;;;5042072;28;20231;-78
2024/01/13 04:56:45;;;;;;;5.73;3.30;;;2.20;99.90;;;;;;5048195;28;20290;-78
2024/01/13 04:59:12;;;;;;;5.57;3.40;;;2.20;99.90;;;;;;5045836;28;20199;-77
2024/01/13 05:01:39;;;;;;;5.27;3.07;;;2.20;99.90;;;;;;5042689;28;20291;-78
2024/01/13 05:04:06;;;;;;;5.40;3.37;;;2.20;99.90;;;;;;5054508;28;20229;-78
2024/01/13 05:06:33;;;;;;;5.70;3.20;;;2.20;99.90;;;;;;5041309;28;20204;-77
2024/01/13 05:09:00;;;;;;;4.30;2.87;;;2.30;99.90;;;;;;5050517;28;20211;-77
2024/01/13 05:11:26;;;;;;;4.23;2.70;;;2.30;99.90;;;;;;5046908;28;20199;-78
2024/01/13 05:13:55;;;;;;;4.97;2.93;;;2.30;99.90;;;;;;5041202;28;20781;-78
2024/01/13 05:16:21;;;;;;;5.13;3.43;;;2.30;99.90;;;;;;5040577;28;20271;-79
2024/01/13 05:18:48;;;;;;;4.37;3.03;;;2.30;99.90;;;;;;5041570;28;20199;-77
2024/01/13 05:21:15;;;;;;;5.50;3.70;;;2.30;99.90;;;;;;5043361;28;20206;-79
2024/01/13 05:23:42;;;;;;;6.00;3.80;;;2.30;99.90;;;;;;5042771;28;20225;-78
2024/01/13 05:26:08;;;;;;;5.93;3.67;;;2.30;99.90;;;;;;5045241;28;20203;-77
2024/01/13 05:28:35;;;;;;;6.60;3.67;;;2.30;99.90;;;;;;5042498;28;20662;-79
2024/01/13 05:31:04;;;;;;;6.10;3.83;;;2.30;99.90;;;;;;5042002;28;20579;-78
2024/01/13 05:33:30;;;;;;;5.47;3.37;;;2.30;99.90;;;;;;5043872;28;20219;-79
2024/01/13 05:35:57;;;;;;;5.30;3.50;;;2.30;99.90;;;;;;5041426;28;20208;-76
2024/01/13 05:38:24;;;;;;;6.57;3.80;;;2.30;99.90;;;;;;5046796;28;20204;-78
2024/01/13 05:40:51;;;;;;;10.63;5.40;;;2.30;99.90;;;;;;5041551;28;20294;-78
2024/01/13 05:43:18;;;;;;;6.27;3.77;;;2.40;99.90;;;;;;5044744;28;20211;-78
2024/01/13 05:45:45;;;;;;;5.90;3.30;;;2.30;99.90;;;;;;5043377;28;20716;-78
2024/01/13 05:48:13;;;;;;;6.00;3.70;;;2.30;99.90;;;;;;5042913;28;20207;-76
2024/01/13 05:50:40;;;;;;;5.83;3.37;;;2.30;99.90;;;;;;5040772;28;20204;-77
2024/01/13 05:53:07;;;;;;;6.20;3.57;;;2.40;99.90;;;;;;5043293;28;20207;-79
2024/01/13 05:55:33;;;;;;;4.17;3.20;;;2.40;99.90;;;;;;5042421;28;20231;-77
2024/01/13 05:58:00;;;;;;;5.13;3.60;;;2.40;99.90;;;;;;5041964;28;20207;-77
2024/01/13 06:00:27;;;;;;;5.67;3.17;;;2.40;99.90;;;;;;5036980;28;20203;-79
2024/01/13 06:02:54;;;;;;;5.13;3.30;;;2.40;99.90;;;;;;5039184;28;20210;-78
2024/01/13 06:05:22;;;;;;;5.83;3.50;;;2.40;99.90;;;;;;5039372;28;20228;-79
2024/01/13 06:07:49;;;;;;;6.20;3.30;;;2.40;99.90;;;;;;5042408;28;20302;-77
2024/01/13 06:10:17;;;;;;;6.03;3.00;;;2.40;99.90;;;;;;5040893;28;20214;-79
2024/01/13 06:12:45;;;;;;;4.03;3.00;;;2.40;99.90;;;;;;5045163;28;20214;-78
2024/01/13 06:15:12;;;;;;;4.73;3.10;;;2.30;99.90;;;;;;5041183;28;20235;-78
2024/01/13 06:17:39;;;;;;;3.70;2.70;;;2.30;99.90;;;;;;5038517;28;20204;-76
2024/01/13 06:20:09;;;;;;;4.23;2.80;;;2.30;99.90;;;;;;5043628;28;20635;-78
2024/01/13 06:22:38;;;;;;;3.47;2.43;;;2.30;99.90;;;;;;5034760;28;20207;-77
2024/01/13 06:25:05;;;;;;;4.20;2.80;;;2.30;99.90;;;;;;5039766;28;20690;-77
2024/01/13 06:27:32;;;;;;;4.30;2.80;;;2.40;99.90;;;;;;5038903;28;20203;-76
2024/01/13 06:29:59;;;;;;;4.60;2.77;;;2.40;99.90;;;;;;5038331;28;20210;-78
2024/01/13 06:32:26;;;;;;;5.57;3.03;;;2.40;99.90;;;;;;5037564;28;20207;-78
2024/01/13 06:34:52;;;;;;;3.37;2.57;;;2.30;99.90;;;;;;5039867;28;20245;-79
2024/01/13 06:37:20;;;;;;;4.27;2.50;;;2.30;99.90;;;;;;5036166;28;20222;-77
2024/01/13 06:39:48;;;;;;;4.03;2.67;;;2.40;99.90;;;;;;5042175;28;20214;-78
2024/01/13 06:42:15;;;;;;;3.33;2.00;;;2.40;99.90;;;;;;5037872;28;20205;-76
2024/01/13 06:44:42;;;;;;;3.77;2.37;;;2.40;99.90;;;;;;5040393;28;20226;-76
2024/01/13 06:47:09;;;;;;;3.33;2.20;;;2.30;99.90;;;;;;5040443;28;20290;-75
2024/01/13 06:49:35;;;;;;;5.07;2.50;;;2.30;99.90;;;;;;5037459;28;20208;-78
2024/01/13 06:52:02;;;;;;;3.40;2.30;;;2.30;99.90;;;;;;5043673;28;20204;-79
2024/01/13 06:54:29;;;;;;;3.30;2.53;;;2.40;99.90;;;;;;5039471;28;20234;-77
2024/01/13 06:56:57;;;;;;;3.43;2.50;;;2.30;99.90;;;;;;5042133;28;20203;-77
2024/01/13 06:59:24;;;;;;;3.10;2.40;;;2.30;99.90;;;;;;5043175;28;20215;-76
2024/01/13 07:01:51;;;;;;;3.40;2.57;;;2.40;99.90;;;;;;5038505;28;20234;-78
2024/01/13 07:04:18;;;;;;;3.73;2.40;;;2.40;99.90;;;;;;5036788;28;20219;-78
2024/01/13 07:06:44;;;;;;;3.73;2.20;;;2.40;99.90;;;;;;5036206;28;20222;-77
2024/01/13 07:09:11;;;;;;;2.83;2.20;;;2.30;99.90;;;;;;5038008;28;20210;-76
2024/01/13 07:11:38;;;;;;;3.07;2.07;;;2.30;99.90;;;;;;5046541;28;20577;-78
2024/01/13 07:14:06;;;;;;;3.37;2.30;;;2.30;99.90;;;;;;5039947;28;22528;-77
2024/01/13 07:16:33;;;;;;;4.13;2.70;;;2.30;99.90;;;;;;5045075;28;20246;-77
2024/01/13 07:19:00;;;;;;;4.00;2.90;;;2.20;99.90;;;;;;5038177;28;20211;-78
2024/01/13 07:21:29;;;;;;;4.83;2.77;;;2.20;99.90;;;;;;5040590;28;20204;-77
2024/01/13 07:23:55;;;;;;;4.13;3.03;;;2.10;99.90;;;;;;5040661;28;20219;-77
2024/01/13 07:26:22;;;;;;;4.40;2.83;;;2.10;99.90;;;;;;5042027;28;20208;-79
2024/01/13 07:28:49;;;;;;;4.30;3.10;;;2.10;99.90;;;;;;5039234;28;20290;-76
2024/01/13 07:31:17;;;;;;;5.10;3.13;;;2.00;99.90;;;;;;5043379;28;20200;-76
2024/01/13 07:33:44;;;;;;;5.17;3.00;;;2.00;99.90;;;;;;5037143;28;20223;-77
2024/01/13 07:36:11;;;;;;;5.80;2.97;;;2.10;99.90;;;;;;5039428;28;20237;-78
2024/01/13 07:38:38;;;;;;;4.63;2.73;;;2.20;99.90;;;;;;5039921;28;20609;-79
2024/01/13 07:41:07;;;;;;;4.93;2.90;;;2.00;99.90;;;;;;5039557;28;20204;-77
2024/01/13 07:43:34;;;;;;;3.93;2.73;;;2.10;99.90;;;;;;5044310;28;20223;-78
2024/01/13 07:46:01;;;;;;;4.77;2.70;;;2.00;99.90;;;;;;5047045;28;20263;-80
2024/01/13 07:48:29;;;;;;;4.00;2.73;;;2.10;99.90;;;;;;5047713;28;20640;-79
2024/01/13 07:50:56;;;;;;;4.00;3.07;;;2.10;99.90;;;;;;5054433;28;20200;-79
2024/01/13 07:53:23;;;;;;;4.23;2.70;;;2.10;99.90;;;;;;5048593;28;20618;-77
2024/01/13 07:55:49;;;;;;;3.77;2.73;;;2.20;99.90;;;;;;5042580;28;20593;-78
2024/01/13 07:58:16;;;;;;;4.33;2.90;;;2.50;99.90;;;;;;5046440;28;20310;-78
2024/01/13 08:00:43;;;;;;;3.33;2.73;;;2.30;99.90;;;;;;5047618;28;20689;-78
2024/01/13 08:03:10;;;;;;;4.90;3.00;;;2.30;99.90;;;;;;5046448;28;20267;-78
2024/01/13 08:05:38;;;;;;;4.73;2.80;;;2.30;99.90;;;;;;5043928;28;20222;-77
2024/01/13 08:08:07;;;;;;;4.37;3.07;;;2.30;99.90;;;;;;5049078;28;20203;-79
2024/01/13 08:10:36;;;;;;;2.87;2.40;;;2.30;99.90;;;;;;5044289;28;20203;-78
2024/01/13 08:13:03;;;;;;;4.33;2.60;;;2.40;99.90;;;;;;5050927;28;20661;-78
2024/01/13 08:15:30;;;;;;;3.80;2.70;;;2.40;99.90;;;;;;5047966;28;20625;-78
2024/01/13 08:17:57;;;;;;;3.83;2.50;;;2.50;99.90;;;;;;5044864;28;20222;-78
2024/01/13 08:20:24;;;;;;;4.10;2.70;;;2.60;99.90;;;;;;5046199;28;20218;-79
2024/01/13 08:22:52;;;;;;;3.20;2.60;;;2.50;99.90;;;;;;5044212;28;20206;-79
2024/01/13 08:25:19;;;;;;;3.20;2.37;;;2.60;99.90;;;;;;5046797;28;20235;-77
2024/01/13 08:27:46;;;;;;;4.17;3.07;;;2.60;99.90;;;;;;5043043;28;20223;-77
2024/01/13 08:30:14;;;;;;;3.87;2.90;;;2.60;99.90;;;;;;5044220;28;20307;-79
2024/01/13 08:32:40;;;;;;;4.37;2.87;;;2.60;77.60;;;;;;5039199;28;20575;-78
2024/01/13 08:35:08;;;;;;;6.80;3.90;;;2.60;99.90;;;;;;5041549;28;20227;-78
2024/01/13 08:37:34;;;;;;;3.93;2.53;;;2.70;93.60;;;;;;5043437;28;20200;-78
2024/01/13 08:40:04;;;;;;;5.03;2.57;;;2.60;1.00;;;;;;5042579;28;20210;-78
2024/01/13 08:42:31;;;;;;;4.27;2.87;;;2.70;1.00;;;;;;5042154;28;20218;-79
2024/01/13 08:44:58;;;;;;;4.57;2.70;;;2.80;1.00;;;;;;5046722;28;20219;-78
2024/01/13 08:47:25;;;;;;;3.43;2.80;;;2.70;1.00;;;;;;5040118;28;20253;-78
2024/01/13 08:49:52;;;;;;;4.17;2.87;;;2.80;1.00;;;;;;5047005;28;20199;-78
2024/01/13 08:52:19;;;;;;;5.00;3.13;;;2.70;1.00;;;;;;5044662;28;20214;-77
2024/01/13 08:54:45;;;;;;;4.63;3.13;;;2.70;1.00;;;;;;5039275;28;20226;-79
2024/01/13 08:57:13;;;;;;;4.90;3.00;;;2.70;1.00;;;;;;5039834;28;20210;-77
2024/01/13 08:59:40;;;;;;;4.80;3.30;;;2.70;1.00;;;;;;5040880;28;20209;-78
2024/01/13 09:02:08;;;;;;;6.43;3.63;;;2.70;1.00;;;;;;5044172;28;20214;-79
2024/01/13 09:04:35;;;;;;;4.70;3.50;;;2.70;1.00;;;;;;5045257;28;20227;-78
2024/01/13 09:07:02;;;;;;;4.50;3.00;;;2.70;1.00;;;;;;5041124;28;20210;-79
2024/01/13 09:09:29;;;;;;;5.23;3.50;;;2.70;1.00;;;;;;5047897;28;20266;-79
2024/01/13 09:11:57;;;;;;;5.30;3.40;;;2.70;1.00;;;;;;5042829;28;20204;-78
2024/01/13 09:14:25;;;;;;;5.67;3.93;;;2.80;1.00;;;;;;5039499;28;20227;-77
2024/01/13 09:16:51;;;;;;;3.87;3.33;;;2.90;1.00;;;;;;5040762;28;20210;-78
2024/01/13 09:19:18;;;;;;;6.70;3.93;;;2.80;1.00;;;;;;5045207;28;20214;-77
2024/01/13 09:21:45;;;;;;;8.00;4.63;;;2.90;1.00;;;;;;5041209;28;20211;-77
2024/01/13 09:24:12;;;;;;;6.53;4.27;;;2.90;1.00;;;;;;5042774;28;20219;-78
2024/01/13 09:26:41;;;;;;;9.37;5.10;;;2.90;1.00;;;;;;5045363;28;20192;-79
2024/01/13 09:29:07;;;;;;;7.90;4.80;;;3.00;1.00;;;;;;5045012;28;20218;-78
2024/01/13 09:31:36;;;;;;;9.37;5.20;;;3.00;1.00;;;;;;5040727;28;20272;-78
2024/01/13 09:34:02;;;;;;;9.93;6.17;;;3.00;1.00;;;;;;5044161;28;20298;-78
2024/01/13 09:36:29;;;;;;;11.87;6.67;;;3.00;1.00;;;;;;5044751;28;20709;-78
2024/01/13 09:38:56;;;;;;;9.53;6.27;;;3.00;1.00;;;;;;5044644;28;20218;-78
2024/01/13 09:41:23;;;;;;;10.07;5.93;;;3.00;1.00;;;;;;5042728;28;20889;-78
2024/01/13 09:44:01;;;;;;;12.73;7.00;;;2.90;1.00;;;;;;5042323;28;20237;-78
2024/01/13 09:46:29;;;;;;;11.23;6.40;;;3.00;1.00;;;;;;5051541;28;21062;-78
2024/01/13 09:48:58;;;;;;;10.77;6.33;;;2.90;1.00;;;;;;5046236;28;20291;-79
2024/01/13 09:51:26;;;;;;;10.20;6.10;;;2.90;1.00;;;;;;5048750;28;20219;-78
2024/01/13 09:53:55;;;;;;;10.67;6.00;;;3.00;1.00;;;;;;5045175;28;20291;-77
2024/01/13 09:56:27;;;;;;;13.07;6.50;;;3.00;1.00;;;;;;5045559;28;20745;-79
2024/01/13 09:58:54;;;;;;;11.23;6.03;;;3.00;1.00;;;;;;5042691;28;20206;-78
2024/01/13 10:01:21;;;;;;;12.23;6.60;;;3.10;1.00;;;;;;5038666;28;20207;-77
2024/01/13 10:03:48;;;;;;;13.77;6.97;;;3.10;1.00;;;;;;5040272;28;20223;-78
2024/01/13 10:06:17;;;;;;;22.30;11.87;;;3.10;99.90;;;;;;5038739;28;20807;-78
2024/01/13 10:08:44;;;;;;;11.97;7.10;;;3.10;1.00;;;;;;5038466;28;20207;-78
2024/01/13 10:11:11;;;;;;;14.20;7.93;;;3.10;1.00;;;;;;5037946;28;20287;-78
2024/01/13 10:13:38;;;;;;;16.57;8.97;;;3.10;1.00;;;;;;5042254;28;20253;-79
2024/01/13 10:16:05;;;;;;;14.13;7.77;;;3.10;1.00;;;;;;5043638;28;20227;-78
2024/01/13 10:18:32;;;;;;;13.50;7.77;;;3.20;1.00;;;;;;5043901;28;20295;-77
2024/01/13 10:20:59;;;;;;;13.23;8.20;;;3.20;1.00;;;;;;5040312;28;20200;-78
2024/01/13 10:23:28;;;;;;;12.50;6.60;;;3.20;1.00;;;;;;5037801;28;20287;-77
2024/01/13 10:25:55;;;;;;;14.97;7.60;;;3.30;1.00;;;;;;5042027;28;20214;-76
2024/01/13 10:28:23;;;;;;;12.73;6.40;;;3.30;1.00;;;;;;5035502;28;20217;-78
2024/01/13 10:30:51;;;;;;;12.70;6.33;;;3.30;1.00;;;;;;5038828;28;20266;-78
2024/01/13 10:33:18;;;;;;;11.23;6.60;;;3.40;99.90;;;;;;5042416;28;20207;-78
2024/01/13 10:35:44;;;;;;;12.30;6.80;;;3.50;1.00;;;;;;5036419;28;20223;-78
2024/01/13 10:38:12;;;;;;;11.13;5.70;;;3.50;1.00;;;;;;5038440;28;20222;-78
2024/01/13 10:40:40;;;;;;;10.73;5.57;;;3.50;1.00;;;;;;5036603;28;20269;-77
2024/01/13 10:43:10;;;;;;;11.67;6.20;;;3.60;1.00;;;;;;5036216;28;20199;-77
2024/01/13 10:45:42;;;;;;;10.40;5.37;;;3.70;1.00;;;;;;5041329;28;20191;-78
2024/01/13 10:48:22;;;;;;;8.63;5.47;;;3.70;32.10;;;;;;5047068;28;20194;-76
2024/01/13 10:50:51;;;;;;;11.73;6.30;;;3.70;1.00;;;;;;5045172;28;20209;-77
2024/01/13 10:53:22;;;;;;;10.67;6.33;;;3.70;1.00;;;;;;5043074;28;20298;-78
2024/01/13 10:55:51;;;;;;;11.30;6.37;;;3.60;1.00;;;;;;5037546;28;20723;-77
2024/01/13 10:58:20;;;;;;;10.30;5.50;;;3.70;99.90;;;;;;5050279;28;20330;-78
2024/01/13 11:00:47;;;;;;;10.40;6.10;;;3.70;1.00;;;;;;5044533;28;20238;-77
2024/01/13 11:03:16;;;;;;;12.40;6.77;;;3.80;1.00;;;;;;5044846;28;20204;-79
2024/01/13 11:05:43;;;;;;;10.70;6.07;;;3.80;1.00;;;;;;5046938;28;20829;-78
2024/01/13 11:08:11;;;;;;;11.60;6.77;;;3.80;1.00;;;;;;5042658;28;20207;-79
2024/01/13 11:10:42;;;;;;;9.57;5.90;;;3.70;1.00;;;;;;5043993;28;20226;-77
2024/01/13 11:13:15;;;;;;;11.70;6.90;;;3.70;99.90;;;;;;5036115;28;20678;-78
2024/01/13 11:15:48;;;;;;;13.67;7.50;;;3.70;58.90;;;;;;5040472;28;20233;-77
2024/01/13 11:18:18;;;;;;;11.87;6.57;;;3.70;99.90;;;;;;5039188;28;20207;-78
2024/01/13 11:21:01;;;;;;;11.70;6.73;;;3.70;1.00;;;;;;5037439;28;20199;-75
2024/01/13 11:23:27;;;;;;;13.00;7.53;;;3.60;1.00;;;;;;5035848;28;20475;-78
2024/01/13 11:25:54;;;;;;;12.03;6.73;;;3.60;1.00;;;;;;5041450;28;20204;-77
2024/01/13 11:28:23;;;;;;;13.20;6.77;;;3.60;1.00;;;;;;5042240;28;20211;-79
2024/01/13 11:30:49;;;;;;;15.13;7.93;;;3.50;1.00;;;;;;5040745;28;20669;-77
2024/01/13 11:33:16;;;;;;;15.40;7.30;;;3.60;1.00;;;;;;5039579;28;20215;-76
2024/01/13 11:35:46;;;;;;;13.60;7.83;;;3.60;99.90;;;;;;5040287;28;20293;-77
2024/01/13 11:38:14;;;;;;;12.27;6.97;;;3.60;99.90;;;;;;5040340;28;20647;-77
2024/01/13 11:40:46;;;;;;;13.30;7.17;;;3.50;99.90;;;;;;5043348;28;20220;-78
2024/01/13 11:43:24;;;;;;;12.40;6.83;;;3.40;99.90;;;;;;5043807;28;20218;-76
2024/01/13 11:45:52;;;;;;;9.93;5.63;;;3.40;99.90;;;;;;5040882;28;20201;-76
2024/01/13 11:48:40;;;;;;;10.67;6.07;;;3.50;99.90;;;;;;5041435;28;20867;-78
2024/01/13 11:51:11;;;;;;;11.23;6.87;;;3.50;99.90;;;;;;5041799;28;20223;-77
2024/01/13 11:53:40;;;;;;;10.40;6.13;;;3.60;99.90;;;;;;5034659;28;20724;-77
2024/01/13 11:56:08;;;;;;;11.73;6.33;;;3.60;99.90;;;;;;5039602;28;20227;-76
2024/01/13 11:58:39;;;;;;;9.57;5.70;;;3.60;99.90;;;;;;5044209;28;20747;-76
2024/01/13 12:01:07;;;;;;;9.50;5.57;;;3.60;99.90;;;;;;5058710;28;20584;-77
2024/01/13 12:03:34;;;;;;;11.47;6.37;;;3.50;99.90;;;;;;5044169;28;20229;-79
2024/01/13 12:06:03;;;;;;;17.00;8.77;;;3.60;99.90;;;;;;5030530;28;20662;-77
2024/01/13 12:08:30;;;;;;;12.83;6.90;;;3.60;99.90;;;;;;5037774;28;20200;-78
2024/01/13 12:10:57;;;;;;;9.77;5.90;;;3.50;99.90;;;;;;5046543;28;20207;-79
2024/01/13 12:13:24;;;;;;;10.03;5.80;;;3.60;99.90;;;;;;5031061;28;20254;-76
2024/01/13 12:15:52;;;;;;;12.43;6.60;;;3.60;99.90;;;;;;4972895;28;1873793;-79
2024/01/13 12:18:21;;;;;;;9.27;5.53;;;3.50;99.90;;;;;;5042363;28;20290;-78
2024/01/13 12:20:49;;;;;;;11.67;6.57;;;3.60;99.90;;;;;;5049971;28;20204;-78
2024/01/13 12:23:16;;;;;;;12.30;6.23;;;3.60;99.90;;;;;;5041788;28;20235;-76
2024/01/13 12:25:43;;;;;;;13.87;7.50;;;3.70;99.90;;;;;;5039541;28;20204;-77
2024/01/13 12:28:10;;;;;;;12.87;6.90;;;3.70;99.90;;;;;;5042643;28;20218;-78
2024/01/13 12:30:38;;;;;;;9.23;5.67;;;3.70;99.90;;;;;;5052846;28;20207;-78
2024/01/13 12:33:07;;;;;;;11.83;6.87;;;3.70;1.00;;;;;;5045999;28;20207;-78
2024/01/13 12:35:34;;;;;;;12.53;7.00;;;3.70;99.90;;;;;;5037278;28;20225;-78
2024/01/13 12:38:01;;;;;;;13.17;7.17;;;4.30;99.90;;;;;;5037866;28;20610;-75
2024/01/13 12:40:29;;;;;;;15.57;8.50;;;3.70;1.00;;;;;;5043498;28;20214;-77
2024/01/13 12:42:57;;;;;;;11.00;6.00;;;3.70;99.90;;;;;;5039761;28;20200;-77
2024/01/13 12:45:27;;;;;;;10.50;6.10;;;3.70;1.00;;;;;;5039466;28;20230;-77
2024/01/13 12:47:54;;;;;;;9.93;6.23;;;3.70;1.00;;;;;;5045060;28;20594;-77
2024/01/13 12:50:22;;;;;;;11.90;6.90;;;3.60;1.00;;;;;;5041036;28;20203;-78
2024/01/13 12:52:49;;;;;;;10.87;6.70;;;3.60;1.00;;;;;;5041580;28;20684;-77
2024/01/13 12:55:17;;;;;;;11.10;6.57;;;3.50;1.00;;;;;;5045640;28;20310;-77